sensor_id;sensor_type;location;lat;lon;timestamp;P1;durP1;ratioP1;P2;durP2;ratioP2
27428;SDS011;14881;48.092;11.574;2024-02-26T00:02:21;12.23;;;9.13;;
27428;SDS011;14881;48.092;11.574;2024-02-26T00:04:49;11.18;;;9.32;;
27428;SDS011;14881;48.092;11.574;2024-02-26T00:07:17;9.27;;;8.27;;
27428;SDS011;14881;48.092;11.574;2024-02-26T00:09:46;12.43;;;8.40;;
27428;SDS011;14881;48.092;11.574;2024-02-26T00:12:14;13.70;;;8.35;;
27428;SDS011;14881;48.092;11.574;2024-02-26T00:14:42;11.70;;;8.68;;
27428;SDS011;14881;48.092;11.574;2024-02-26T00:17:11;11.38;;;7.95;;
27428;SDS011;14881;48.092;11.574;2024-02-26T00:19:40;8.90;;;7.35;;
27428;SDS011;14881;48.092;11.574;2024-02-26T00:22:08;10.73;;;7.35;;
27428;SDS011;14881;48.092;11.574;2024-02-26T00:24:36;8.00;;;6.88;;
27428;SDS011;14881;48.092;11.574;2024-02-26T00:27:05;8.23;;;7.05;;
27428;SDS011;14881;48.092;11.574;2024-02-26T00:29:33;8.90;;;7.35;;
27428;SDS011;14881;48.092;11.574;2024-02-26T00:32:01;9.13;;;6.95;;
27428;SDS011;14881;48.092;11.574;2024-02-26T00:34:29;8.20;;;7.38;;
27428;SDS011;14881;48.092;11.574;2024-02-26T00:36:56;7.72;;;6.40;;
27428;SDS011;14881;48.092;11.574;2024-02-26T00:39:24;7.55;;;6.35;;
27428;SDS011;14881;48.092;11.574;2024-02-26T00:41:52;8.82;;;6.88;;
27428;SDS011;14881;48.092;11.574;2024-02-26T00:44:21;8.07;;;6.25;;
27428;SDS011;14881;48.092;11.574;2024-02-26T00:46:49;7.03;;;6.13;;
27428;SDS011;14881;48.092;11.574;2024-02-26T00:49:17;9.10;;;6.85;;
27428;SDS011;14881;48.092;11.574;2024-02-26T00:51:46;9.95;;;5.95;;
27428;SDS011;14881;48.092;11.574;2024-02-26T00:54:14;7.43;;;6.38;;
27428;SDS011;14881;48.092;11.574;2024-02-26T00:56:42;8.18;;;6.40;;
27428;SDS011;14881;48.092;11.574;2024-02-26T00:59:10;8.00;;;5.95;;
27428;SDS011;14881;48.092;11.574;2024-02-26T01:01:39;9.50;;;6.20;;
27428;SDS011;14881;48.092;11.574;2024-02-26T01:04:06;6.90;;;6.20;;
27428;SDS011;14881;48.092;11.574;2024-02-26T01:06:35;6.70;;;5.97;;
27428;SDS011;14881;48.092;11.574;2024-02-26T01:09:03;8.77;;;5.65;;
27428;SDS011;14881;48.092;11.574;2024-02-26T01:11:31;8.32;;;5.72;;
27428;SDS011;14881;48.092;11.574;2024-02-26T01:13:59;8.25;;;6.00;;
27428;SDS011;14881;48.092;11.574;2024-02-26T01:16:26;6.60;;;5.60;;
27428;SDS011;14881;48.092;11.574;2024-02-26T01:18:56;6.30;;;5.70;;
27428;SDS011;14881;48.092;11.574;2024-02-26T01:21:24;6.25;;;5.65;;
27428;SDS011;14881;48.092;11.574;2024-02-26T01:23:53;6.78;;;5.45;;
27428;SDS011;14881;48.092;11.574;2024-02-26T01:26:21;9.15;;;5.97;;
27428;SDS011;14881;48.092;11.574;2024-02-26T01:28:49;8.25;;;5.75;;
27428;SDS011;14881;48.092;11.574;2024-02-26T01:31:16;5.75;;;5.07;;
27428;SDS011;14881;48.092;11.574;2024-02-26T01:33:44;8.32;;;5.38;;
27428;SDS011;14881;48.092;11.574;2024-02-26T01:36:13;6.15;;;4.80;;
27428;SDS011;14881;48.092;11.574;2024-02-26T01:38:41;6.80;;;4.68;;
27428;SDS011;14881;48.092;11.574;2024-02-26T01:41:10;5.93;;;5.32;;
27428;SDS011;14881;48.092;11.574;2024-02-26T01:43:37;5.65;;;5.05;;
27428;SDS011;14881;48.092;11.574;2024-02-26T01:46:05;6.50;;;5.50;;
27428;SDS011;14881;48.092;11.574;2024-02-26T01:48:35;6.55;;;4.95;;
27428;SDS011;14881;48.092;11.574;2024-02-26T01:51:03;5.63;;;5.00;;
27428;SDS011;14881;48.092;11.574;2024-02-26T01:53:33;6.40;;;5.03;;
27428;SDS011;14881;48.092;11.574;2024-02-26T01:56:01;5.63;;;4.97;;
27428;SDS011;14881;48.092;11.574;2024-02-26T01:58:30;8.95;;;5.38;;
27428;SDS011;14881;48.092;11.574;2024-02-26T02:00:58;5.53;;;4.38;;
27428;SDS011;14881;48.092;11.574;2024-02-26T02:03:27;5.93;;;4.80;;
27428;SDS011;14881;48.092;11.574;2024-02-26T02:05:55;6.57;;;4.90;;
27428;SDS011;14881;48.092;11.574;2024-02-26T02:08:23;5.90;;;5.30;;
27428;SDS011;14881;48.092;11.574;2024-02-26T02:10:52;5.93;;;4.82;;
27428;SDS011;14881;48.092;11.574;2024-02-26T02:13:20;5.80;;;5.20;;
27428;SDS011;14881;48.092;11.574;2024-02-26T02:15:48;6.90;;;4.95;;
27428;SDS011;14881;48.092;11.574;2024-02-26T02:18:16;5.25;;;4.75;;
27428;SDS011;14881;48.092;11.574;2024-02-26T02:20:45;6.57;;;5.05;;
27428;SDS011;14881;48.092;11.574;2024-02-26T02:23:13;5.90;;;5.30;;
27428;SDS011;14881;48.092;11.574;2024-02-26T02:25:40;6.75;;;4.90;;
27428;SDS011;14881;48.092;11.574;2024-02-26T02:28:08;5.55;;;4.45;;
27428;SDS011;14881;48.092;11.574;2024-02-26T02:30:36;4.90;;;4.40;;
27428;SDS011;14881;48.092;11.574;2024-02-26T02:33:05;5.85;;;4.43;;
27428;SDS011;14881;48.092;11.574;2024-02-26T02:35:33;5.53;;;4.65;;
27428;SDS011;14881;48.092;11.574;2024-02-26T02:38:02;5.20;;;4.63;;
27428;SDS011;14881;48.092;11.574;2024-02-26T02:40:30;5.25;;;4.30;;
27428;SDS011;14881;48.092;11.574;2024-02-26T02:42:58;6.13;;;4.70;;
27428;SDS011;14881;48.092;11.574;2024-02-26T02:45:28;4.97;;;4.47;;
27428;SDS011;14881;48.092;11.574;2024-02-26T02:47:56;8.43;;;5.15;;
27428;SDS011;14881;48.092;11.574;2024-02-26T02:50:24;4.57;;;4.18;;
27428;SDS011;14881;48.092;11.574;2024-02-26T02:52:51;6.03;;;4.32;;
27428;SDS011;14881;48.092;11.574;2024-02-26T02:55:20;6.45;;;4.75;;
27428;SDS011;14881;48.092;11.574;2024-02-26T02:57:48;5.20;;;4.55;;
27428;SDS011;14881;48.092;11.574;2024-02-26T03:00:16;5.07;;;4.35;;
27428;SDS011;14881;48.092;11.574;2024-02-26T03:02:44;4.90;;;4.20;;
27428;SDS011;14881;48.092;11.574;2024-02-26T03:05:12;4.72;;;3.75;;
27428;SDS011;14881;48.092;11.574;2024-02-26T03:07:41;5.43;;;4.07;;
27428;SDS011;14881;48.092;11.574;2024-02-26T03:10:09;6.30;;;4.40;;
27428;SDS011;14881;48.092;11.574;2024-02-26T03:12:38;4.45;;;4.05;;
27428;SDS011;14881;48.092;11.574;2024-02-26T03:15:06;6.75;;;4.50;;
27428;SDS011;14881;48.092;11.574;2024-02-26T03:17:35;5.53;;;4.05;;
27428;SDS011;14881;48.092;11.574;2024-02-26T03:20:03;4.22;;;3.83;;
27428;SDS011;14881;48.092;11.574;2024-02-26T03:22:31;5.53;;;4.00;;
27428;SDS011;14881;48.092;11.574;2024-02-26T03:24:59;5.55;;;4.47;;
27428;SDS011;14881;48.092;11.574;2024-02-26T03:27:29;5.45;;;4.13;;
27428;SDS011;14881;48.092;11.574;2024-02-26T03:29:59;5.53;;;4.05;;
27428;SDS011;14881;48.092;11.574;2024-02-26T03:32:27;5.03;;;3.92;;
27428;SDS011;14881;48.092;11.574;2024-02-26T03:34:54;5.72;;;4.32;;
27428;SDS011;14881;48.092;11.574;2024-02-26T03:37:22;5.30;;;4.15;;
27428;SDS011;14881;48.092;11.574;2024-02-26T03:39:51;4.72;;;4.20;;
27428;SDS011;14881;48.092;11.574;2024-02-26T03:42:18;4.32;;;3.92;;
27428;SDS011;14881;48.092;11.574;2024-02-26T03:44:46;4.60;;;3.80;;
27428;SDS011;14881;48.092;11.574;2024-02-26T03:47:15;6.53;;;4.00;;
27428;SDS011;14881;48.092;11.574;2024-02-26T03:49:43;5.60;;;4.43;;
27428;SDS011;14881;48.092;11.574;2024-02-26T03:52:11;5.20;;;3.50;;
27428;SDS011;14881;48.092;11.574;2024-02-26T03:54:39;6.90;;;4.40;;
27428;SDS011;14881;48.092;11.574;2024-02-26T03:57:07;7.72;;;4.13;;
27428;SDS011;14881;48.092;11.574;2024-02-26T03:59:35;4.97;;;3.97;;
27428;SDS011;14881;48.092;11.574;2024-02-26T04:02:03;4.35;;;3.30;;
27428;SDS011;14881;48.092;11.574;2024-02-26T04:04:34;5.55;;;3.90;;
27428;SDS011;14881;48.092;11.574;2024-02-26T04:07:02;4.07;;;3.67;;
27428;SDS011;14881;48.092;11.574;2024-02-26T04:09:31;4.22;;;3.80;;
27428;SDS011;14881;48.092;11.574;2024-02-26T04:11:59;4.00;;;3.33;;
27428;SDS011;14881;48.092;11.574;2024-02-26T04:14:26;4.40;;;4.00;;
27428;SDS011;14881;48.092;11.574;2024-02-26T04:16:54;4.45;;;3.75;;
27428;SDS011;14881;48.092;11.574;2024-02-26T04:19:22;3.67;;;3.30;;
27428;SDS011;14881;48.092;11.574;2024-02-26T04:21:51;5.72;;;3.58;;
27428;SDS011;14881;48.092;11.574;2024-02-26T04:24:19;4.93;;;3.72;;
27428;SDS011;14881;48.092;11.574;2024-02-26T04:26:47;3.40;;;3.10;;
27428;SDS011;14881;48.092;11.574;2024-02-26T04:29:16;4.07;;;3.67;;
27428;SDS011;14881;48.092;11.574;2024-02-26T04:31:43;4.00;;;3.58;;
27428;SDS011;14881;48.092;11.574;2024-02-26T04:34:12;4.40;;;3.80;;
27428;SDS011;14881;48.092;11.574;2024-02-26T04:36:40;5.50;;;3.40;;
27428;SDS011;14881;48.092;11.574;2024-02-26T04:39:10;4.07;;;3.35;;
27428;SDS011;14881;48.092;11.574;2024-02-26T04:41:38;3.72;;;3.42;;
27428;SDS011;14881;48.092;11.574;2024-02-26T04:44:05;3.50;;;3.20;;
27428;SDS011;14881;48.092;11.574;2024-02-26T04:46:33;3.72;;;3.33;;
27428;SDS011;14881;48.092;11.574;2024-02-26T04:49:01;4.50;;;3.45;;
27428;SDS011;14881;48.092;11.574;2024-02-26T04:51:29;3.70;;;3.22;;
27428;SDS011;14881;48.092;11.574;2024-02-26T04:53:57;3.45;;;3.15;;
27428;SDS011;14881;48.092;11.574;2024-02-26T04:56:26;4.18;;;3.25;;
27428;SDS011;14881;48.092;11.574;2024-02-26T04:58:54;4.25;;;3.80;;
27428;SDS011;14881;48.092;11.574;2024-02-26T05:01:22;4.45;;;3.50;;
27428;SDS011;14881;48.092;11.574;2024-02-26T05:03:50;4.18;;;3.38;;
27428;SDS011;14881;48.092;11.574;2024-02-26T05:06:18;3.80;;;3.38;;
27428;SDS011;14881;48.092;11.574;2024-02-26T05:08:46;8.30;;;3.50;;
27428;SDS011;14881;48.092;11.574;2024-02-26T05:11:14;3.53;;;3.13;;
27428;SDS011;14881;48.092;11.574;2024-02-26T05:13:44;4.43;;;3.35;;
27428;SDS011;14881;48.092;11.574;2024-02-26T05:16:12;4.03;;;3.47;;
27428;SDS011;14881;48.092;11.574;2024-02-26T05:18:40;3.20;;;2.90;;
27428;SDS011;14881;48.092;11.574;2024-02-26T05:21:08;3.92;;;3.53;;
27428;SDS011;14881;48.092;11.574;2024-02-26T05:23:36;4.07;;;2.75;;
27428;SDS011;14881;48.092;11.574;2024-02-26T05:26:04;3.72;;;3.33;;
27428;SDS011;14881;48.092;11.574;2024-02-26T05:28:31;3.85;;;3.45;;
27428;SDS011;14881;48.092;11.574;2024-02-26T05:31:01;3.10;;;2.80;;
27428;SDS011;14881;48.092;11.574;2024-02-26T05:33:29;3.78;;;3.05;;
27428;SDS011;14881;48.092;11.574;2024-02-26T05:35:57;4.22;;;2.80;;
27428;SDS011;14881;48.092;11.574;2024-02-26T05:38:30;3.20;;;2.83;;
27428;SDS011;14881;48.092;11.574;2024-02-26T05:40:58;4.25;;;3.13;;
27428;SDS011;14881;48.092;11.574;2024-02-26T05:43:26;3.60;;;2.70;;
27428;SDS011;14881;48.092;11.574;2024-02-26T05:45:54;4.63;;;3.30;;
27428;SDS011;14881;48.092;11.574;2024-02-26T05:48:23;2.97;;;2.67;;
27428;SDS011;14881;48.092;11.574;2024-02-26T05:50:51;3.15;;;2.83;;
27428;SDS011;14881;48.092;11.574;2024-02-26T05:53:19;3.25;;;2.85;;
27428;SDS011;14881;48.092;11.574;2024-02-26T05:55:47;4.68;;;2.92;;
27428;SDS011;14881;48.092;11.574;2024-02-26T05:58:15;5.53;;;3.08;;
27428;SDS011;14881;48.092;11.574;2024-02-26T06:00:42;4.07;;;3.03;;
27428;SDS011;14881;48.092;11.574;2024-02-26T06:03:10;3.15;;;2.58;;
27428;SDS011;14881;48.092;11.574;2024-02-26T06:05:39;3.00;;;2.75;;
27428;SDS011;14881;48.092;11.574;2024-02-26T06:08:07;3.83;;;3.00;;
27428;SDS011;14881;48.092;11.574;2024-02-26T06:10:35;3.30;;;2.70;;
27428;SDS011;14881;48.092;11.574;2024-02-26T06:13:03;3.45;;;2.53;;
27428;SDS011;14881;48.092;11.574;2024-02-26T06:15:31;3.05;;;2.70;;
27428;SDS011;14881;48.092;11.574;2024-02-26T06:17:59;4.28;;;2.97;;
27428;SDS011;14881;48.092;11.574;2024-02-26T06:20:27;3.25;;;2.85;;
27428;SDS011;14881;48.092;11.574;2024-02-26T06:22:56;4.13;;;2.63;;
27428;SDS011;14881;48.092;11.574;2024-02-26T06:25:24;4.07;;;2.63;;
27428;SDS011;14881;48.092;11.574;2024-02-26T06:27:52;4.72;;;2.65;;
27428;SDS011;14881;48.092;11.574;2024-02-26T06:30:21;5.95;;;3.10;;
27428;SDS011;14881;48.092;11.574;2024-02-26T06:32:48;5.07;;;2.90;;
27428;SDS011;14881;48.092;11.574;2024-02-26T06:35:16;4.78;;;3.00;;
27428;SDS011;14881;48.092;11.574;2024-02-26T06:37:45;4.22;;;2.67;;
27428;SDS011;14881;48.092;11.574;2024-02-26T06:40:14;4.95;;;2.78;;
27428;SDS011;14881;48.092;11.574;2024-02-26T06:42:43;3.85;;;2.40;;
27428;SDS011;14881;48.092;11.574;2024-02-26T06:45:14;4.20;;;2.53;;
27428;SDS011;14881;48.092;11.574;2024-02-26T06:47:42;3.45;;;2.63;;
27428;SDS011;14881;48.092;11.574;2024-02-26T06:50:11;6.13;;;2.63;;
27428;SDS011;14881;48.092;11.574;2024-02-26T06:52:39;4.40;;;2.60;;
27428;SDS011;14881;48.092;11.574;2024-02-26T06:55:07;3.88;;;2.67;;
27428;SDS011;14881;48.092;11.574;2024-02-26T06:57:37;2.95;;;2.53;;
27428;SDS011;14881;48.092;11.574;2024-02-26T07:00:05;3.95;;;2.35;;
27428;SDS011;14881;48.092;11.574;2024-02-26T07:02:33;4.03;;;3.08;;
27428;SDS011;14881;48.092;11.574;2024-02-26T07:05:05;2.70;;;2.47;;
27428;SDS011;14881;48.092;11.574;2024-02-26T07:07:33;3.65;;;3.15;;
27428;SDS011;14881;48.092;11.574;2024-02-26T07:10:01;3.22;;;2.60;;
27428;SDS011;14881;48.092;11.574;2024-02-26T07:12:29;6.55;;;3.92;;
27428;SDS011;14881;48.092;11.574;2024-02-26T07:14:59;5.82;;;3.53;;
27428;SDS011;14881;48.092;11.574;2024-02-26T07:17:27;3.97;;;2.92;;
27428;SDS011;14881;48.092;11.574;2024-02-26T07:19:54;4.43;;;2.75;;
27428;SDS011;14881;48.092;11.574;2024-02-26T07:22:22;2.33;;;2.13;;
27428;SDS011;14881;48.092;11.574;2024-02-26T07:24:51;3.33;;;2.60;;
27428;SDS011;14881;48.092;11.574;2024-02-26T07:27:18;4.18;;;2.30;;
27428;SDS011;14881;48.092;11.574;2024-02-26T07:29:47;5.55;;;3.30;;
27428;SDS011;14881;48.092;11.574;2024-02-26T07:32:17;8.38;;;3.15;;
27428;SDS011;14881;48.092;11.574;2024-02-26T07:34:45;14.25;;;3.60;;
27428;SDS011;14881;48.092;11.574;2024-02-26T07:37:13;6.68;;;3.85;;
27428;SDS011;14881;48.092;11.574;2024-02-26T07:39:40;4.47;;;3.20;;
27428;SDS011;14881;48.092;11.574;2024-02-26T07:42:08;13.40;;;3.33;;
27428;SDS011;14881;48.092;11.574;2024-02-26T07:44:36;4.30;;;2.88;;
27428;SDS011;14881;48.092;11.574;2024-02-26T07:47:04;5.22;;;3.03;;
27428;SDS011;14881;48.092;11.574;2024-02-26T07:49:33;10.32;;;4.20;;
27428;SDS011;14881;48.092;11.574;2024-02-26T07:52:04;6.10;;;3.38;;
27428;SDS011;14881;48.092;11.574;2024-02-26T07:54:32;5.82;;;3.40;;
27428;SDS011;14881;48.092;11.574;2024-02-26T07:57:00;8.40;;;3.00;;
27428;SDS011;14881;48.092;11.574;2024-02-26T07:59:31;9.25;;;3.58;;
27428;SDS011;14881;48.092;11.574;2024-02-26T08:01:59;6.97;;;2.95;;
27428;SDS011;14881;48.092;11.574;2024-02-26T08:04:29;3.63;;;3.20;;
27428;SDS011;14881;48.092;11.574;2024-02-26T08:06:58;7.22;;;3.00;;
27428;SDS011;14881;48.092;11.574;2024-02-26T08:09:26;3.17;;;2.80;;
27428;SDS011;14881;48.092;11.574;2024-02-26T08:11:54;7.18;;;2.70;;
27428;SDS011;14881;48.092;11.574;2024-02-26T08:14:22;7.18;;;3.15;;
27428;SDS011;14881;48.092;11.574;2024-02-26T08:16:50;12.75;;;3.45;;
27428;SDS011;14881;48.092;11.574;2024-02-26T08:19:17;14.13;;;3.33;;
27428;SDS011;14881;48.092;11.574;2024-02-26T08:21:45;9.35;;;3.30;;
27428;SDS011;14881;48.092;11.574;2024-02-26T08:24:14;5.15;;;2.70;;
27428;SDS011;14881;48.092;11.574;2024-02-26T08:26:42;6.45;;;2.80;;
27428;SDS011;14881;48.092;11.574;2024-02-26T08:29:11;5.35;;;2.95;;
27428;SDS011;14881;48.092;11.574;2024-02-26T08:31:39;6.15;;;2.42;;
27428;SDS011;14881;48.092;11.574;2024-02-26T08:34:07;5.75;;;2.65;;
27428;SDS011;14881;48.092;11.574;2024-02-26T08:36:35;3.45;;;2.38;;
27428;SDS011;14881;48.092;11.574;2024-02-26T08:39:03;4.38;;;2.25;;
27428;SDS011;14881;48.092;11.574;2024-02-26T08:41:32;3.60;;;2.60;;
27428;SDS011;14881;48.092;11.574;2024-02-26T08:44:00;5.50;;;2.65;;
27428;SDS011;14881;48.092;11.574;2024-02-26T08:46:28;6.68;;;2.70;;
27428;SDS011;14881;48.092;11.574;2024-02-26T08:48:56;3.15;;;2.30;;
27428;SDS011;14881;48.092;11.574;2024-02-26T08:51:23;4.90;;;2.58;;
27428;SDS011;14881;48.092;11.574;2024-02-26T08:53:51;4.25;;;2.72;;
27428;SDS011;14881;48.092;11.574;2024-02-26T08:56:20;4.05;;;2.63;;
27428;SDS011;14881;48.092;11.574;2024-02-26T08:58:49;6.75;;;2.90;;
27428;SDS011;14881;48.092;11.574;2024-02-26T09:01:20;7.40;;;2.90;;
27428;SDS011;14881;48.092;11.574;2024-02-26T09:03:49;5.32;;;3.00;;
27428;SDS011;14881;48.092;11.574;2024-02-26T09:06:17;7.25;;;3.30;;
27428;SDS011;14881;48.092;11.574;2024-02-26T09:08:45;5.85;;;3.00;;
27428;SDS011;14881;48.092;11.574;2024-02-26T09:11:13;9.55;;;3.10;;
27428;SDS011;14881;48.092;11.574;2024-02-26T09:13:41;8.65;;;3.80;;
27428;SDS011;14881;48.092;11.574;2024-02-26T09:16:11;5.53;;;3.28;;
27428;SDS011;14881;48.092;11.574;2024-02-26T09:18:39;8.18;;;4.03;;
27428;SDS011;14881;48.092;11.574;2024-02-26T09:21:07;6.15;;;3.95;;
27428;SDS011;14881;48.092;11.574;2024-02-26T09:23:35;13.00;;;3.85;;
27428;SDS011;14881;48.092;11.574;2024-02-26T09:26:04;9.57;;;4.30;;
27428;SDS011;14881;48.092;11.574;2024-02-26T09:28:32;6.07;;;3.50;;
27428;SDS011;14881;48.092;11.574;2024-02-26T09:31:03;9.45;;;3.72;;
27428;SDS011;14881;48.092;11.574;2024-02-26T09:33:34;7.95;;;4.07;;
27428;SDS011;14881;48.092;11.574;2024-02-26T09:36:02;7.43;;;3.85;;
27428;SDS011;14881;48.092;11.574;2024-02-26T09:38:32;6.60;;;3.22;;
27428;SDS011;14881;48.092;11.574;2024-02-26T09:41:17;10.90;;;3.53;;
27428;SDS011;14881;48.092;11.574;2024-02-26T09:43:45;11.00;;;3.50;;
27428;SDS011;14881;48.092;11.574;2024-02-26T09:46:14;8.20;;;3.97;;
27428;SDS011;14881;48.092;11.574;2024-02-26T09:48:45;9.65;;;3.10;;
27428;SDS011;14881;48.092;11.574;2024-02-26T09:51:15;7.03;;;3.15;;
27428;SDS011;14881;48.092;11.574;2024-02-26T09:53:44;5.57;;;2.50;;
27428;SDS011;14881;48.092;11.574;2024-02-26T09:56:14;6.95;;;3.03;;
27428;SDS011;14881;48.092;11.574;2024-02-26T09:58:43;3.60;;;2.40;;
27428;SDS011;14881;48.092;11.574;2024-02-26T10:01:13;5.90;;;2.40;;
27428;SDS011;14881;48.092;11.574;2024-02-26T10:03:43;3.63;;;2.25;;
27428;SDS011;14881;48.092;11.574;2024-02-26T10:06:19;7.05;;;2.63;;
27428;SDS011;14881;48.092;11.574;2024-02-26T10:08:47;5.05;;;2.03;;
27428;SDS011;14881;48.092;11.574;2024-02-26T10:11:16;3.88;;;2.35;;
27428;SDS011;14881;48.092;11.574;2024-02-26T10:13:45;3.53;;;1.75;;
27428;SDS011;14881;48.092;11.574;2024-02-26T10:16:13;3.40;;;1.90;;
27428;SDS011;14881;48.092;11.574;2024-02-26T10:18:46;1.70;;;1.60;;
27428;SDS011;14881;48.092;11.574;2024-02-26T10:21:25;2.13;;;1.88;;
27428;SDS011;14881;48.092;11.574;2024-02-26T10:23:53;1.73;;;1.60;;
27428;SDS011;14881;48.092;11.574;2024-02-26T10:26:21;2.63;;;1.88;;
27428;SDS011;14881;48.092;11.574;2024-02-26T10:28:49;2.50;;;2.20;;
27428;SDS011;14881;48.092;11.574;2024-02-26T10:31:21;3.53;;;2.00;;
27428;SDS011;14881;48.092;11.574;2024-02-26T10:33:51;3.17;;;1.70;;
27428;SDS011;14881;48.092;11.574;2024-02-26T10:36:25;5.93;;;4.43;;
27428;SDS011;14881;48.092;11.574;2024-02-26T10:39:09;3.55;;;1.80;;
27428;SDS011;14881;48.092;11.574;2024-02-26T10:41:40;4.65;;;1.90;;
27428;SDS011;14881;48.092;11.574;2024-02-26T10:44:08;1.23;;;1.13;;
27428;SDS011;14881;48.092;11.574;2024-02-26T10:46:43;1.48;;;1.38;;
27428;SDS011;14881;48.092;11.574;2024-02-26T10:49:15;1.58;;;1.42;;
27428;SDS011;14881;48.092;11.574;2024-02-26T10:51:45;2.15;;;1.45;;
27428;SDS011;14881;48.092;11.574;2024-02-26T10:54:19;3.22;;;1.35;;
27428;SDS011;14881;48.092;11.574;2024-02-26T10:56:48;2.38;;;1.70;;
27428;SDS011;14881;48.092;11.574;2024-02-26T10:59:18;3.30;;;1.60;;
27428;SDS011;14881;48.092;11.574;2024-02-26T11:01:47;1.90;;;1.20;;
27428;SDS011;14881;48.092;11.574;2024-02-26T11:04:17;1.25;;;1.15;;
27428;SDS011;14881;48.092;11.574;2024-02-26T11:06:46;1.58;;;1.48;;
27428;SDS011;14881;48.092;11.574;2024-02-26T11:09:14;1.65;;;1.50;;
27428;SDS011;14881;48.092;11.574;2024-02-26T11:11:43;1.20;;;1.10;;
27428;SDS011;14881;48.092;11.574;2024-02-26T11:14:12;1.85;;;1.40;;
27428;SDS011;14881;48.092;11.574;2024-02-26T11:16:41;1.52;;;1.42;;
27428;SDS011;14881;48.092;11.574;2024-02-26T11:19:09;1.70;;;1.60;;
27428;SDS011;14881;48.092;11.574;2024-02-26T11:21:41;3.05;;;1.60;;
27428;SDS011;14881;48.092;11.574;2024-02-26T11:24:12;2.42;;;1.40;;
27428;SDS011;14881;48.092;11.574;2024-02-26T11:26:41;2.13;;;1.50;;
27428;SDS011;14881;48.092;11.574;2024-02-26T11:29:16;2.55;;;1.58;;
27428;SDS011;14881;48.092;11.574;2024-02-26T11:31:48;1.92;;;1.40;;
27428;SDS011;14881;48.092;11.574;2024-02-26T11:34:16;2.95;;;1.73;;
27428;SDS011;14881;48.092;11.574;2024-02-26T11:36:46;2.50;;;1.50;;
27428;SDS011;14881;48.092;11.574;2024-02-26T11:39:14;1.38;;;1.20;;
27428;SDS011;14881;48.092;11.574;2024-02-26T11:41:43;1.30;;;1.20;;
27428;SDS011;14881;48.092;11.574;2024-02-26T11:44:11;1.92;;;1.20;;
27428;SDS011;14881;48.092;11.574;2024-02-26T11:46:39;1.95;;;1.30;;
27428;SDS011;14881;48.092;11.574;2024-02-26T11:51:59;1.60;;;1.50;;
27428;SDS011;14881;48.092;11.574;2024-02-26T11:54:40;1.30;;;1.20;;
27428;SDS011;14881;48.092;11.574;2024-02-26T11:57:23;2.20;;;1.33;;
27428;SDS011;14881;48.092;11.574;2024-02-26T11:59:53;3.05;;;1.50;;
27428;SDS011;14881;48.092;11.574;2024-02-26T12:05:20;5.40;;;1.60;;
27428;SDS011;14881;48.092;11.574;2024-02-26T12:07:53;0.95;;;0.90;;
27428;SDS011;14881;48.092;11.574;2024-02-26T12:10:24;3.83;;;1.60;;
27428;SDS011;14881;48.092;11.574;2024-02-26T12:12:53;4.18;;;1.35;;
27428;SDS011;14881;48.092;11.574;2024-02-26T12:15:23;4.18;;;1.15;;
27428;SDS011;14881;48.092;11.574;2024-02-26T12:17:52;1.58;;;1.20;;
27428;SDS011;14881;48.092;11.574;2024-02-26T12:20:21;2.88;;;1.33;;
27428;SDS011;14881;48.092;11.574;2024-02-26T12:22:49;1.48;;;1.10;;
27428;SDS011;14881;48.092;11.574;2024-02-26T12:25:21;2.47;;;1.13;;
27428;SDS011;14881;48.092;11.574;2024-02-26T12:27:51;1.83;;;1.27;;
27428;SDS011;14881;48.092;11.574;2024-02-26T12:30:18;2.63;;;1.00;;
27428;SDS011;14881;48.092;11.574;2024-02-26T12:32:47;1.30;;;1.15;;
27428;SDS011;14881;48.092;11.574;2024-02-26T12:35:15;4.20;;;1.10;;
27428;SDS011;14881;48.092;11.574;2024-02-26T12:37:44;1.95;;;1.15;;
27428;SDS011;14881;48.092;11.574;2024-02-26T12:40:12;3.15;;;1.33;;
27428;SDS011;14881;48.092;11.574;2024-02-26T12:42:41;1.23;;;1.13;;
27428;SDS011;14881;48.092;11.574;2024-02-26T12:45:10;4.28;;;1.23;;
27428;SDS011;14881;48.092;11.574;2024-02-26T12:47:39;1.88;;;1.45;;
27428;SDS011;14881;48.092;11.574;2024-02-26T12:50:08;1.85;;;1.40;;
27428;SDS011;14881;48.092;11.574;2024-02-26T12:52:37;2.13;;;1.17;;
27428;SDS011;14881;48.092;11.574;2024-02-26T12:55:07;2.00;;;1.10;;
27428;SDS011;14881;48.092;11.574;2024-02-26T12:57:36;2.22;;;1.10;;
27428;SDS011;14881;48.092;11.574;2024-02-26T13:00:07;2.83;;;1.20;;
27428;SDS011;14881;48.092;11.574;2024-02-26T13:02:38;1.85;;;1.40;;
27428;SDS011;14881;48.092;11.574;2024-02-26T13:05:07;2.03;;;1.10;;
27428;SDS011;14881;48.092;11.574;2024-02-26T13:07:40;3.03;;;1.33;;
27428;SDS011;14881;48.092;11.574;2024-02-26T13:10:08;2.33;;;0.90;;
27428;SDS011;14881;48.092;11.574;2024-02-26T13:12:41;2.05;;;0.90;;
27428;SDS011;14881;48.092;11.574;2024-02-26T13:15:15;1.85;;;0.90;;
27428;SDS011;14881;48.092;11.574;2024-02-26T13:17:44;3.45;;;1.20;;
27428;SDS011;14881;48.092;11.574;2024-02-26T13:20:24;2.67;;;1.10;;
27428;SDS011;14881;48.092;11.574;2024-02-26T13:22:59;3.35;;;1.92;;
27428;SDS011;14881;48.092;11.574;2024-02-26T13:25:27;3.88;;;2.33;;
27428;SDS011;14881;48.092;11.574;2024-02-26T13:28:05;2.85;;;2.20;;
27428;SDS011;14881;48.092;11.574;2024-02-26T13:30:38;2.38;;;2.17;;
27428;SDS011;14881;48.092;11.574;2024-02-26T13:33:09;2.28;;;1.80;;
27428;SDS011;14881;48.092;11.574;2024-02-26T13:35:38;4.38;;;2.00;;
27428;SDS011;14881;48.092;11.574;2024-02-26T13:38:06;3.17;;;1.75;;
27428;SDS011;14881;48.092;11.574;2024-02-26T13:40:34;3.15;;;1.92;;
27428;SDS011;14881;48.092;11.574;2024-02-26T13:43:03;5.88;;;2.20;;
27428;SDS011;14881;48.092;11.574;2024-02-26T13:45:33;2.53;;;1.80;;
27428;SDS011;14881;48.092;11.574;2024-02-26T13:48:04;4.10;;;2.03;;
27428;SDS011;14881;48.092;11.574;2024-02-26T13:50:33;2.88;;;2.53;;
27428;SDS011;14881;48.092;11.574;2024-02-26T13:53:01;2.65;;;2.35;;
27428;SDS011;14881;48.092;11.574;2024-02-26T13:55:30;3.83;;;2.55;;
27428;SDS011;14881;48.092;11.574;2024-02-26T13:57:58;2.25;;;2.05;;
27428;SDS011;14881;48.092;11.574;2024-02-26T14:00:27;2.03;;;1.83;;
27428;SDS011;14881;48.092;11.574;2024-02-26T14:02:58;3.03;;;1.83;;
27428;SDS011;14881;48.092;11.574;2024-02-26T14:05:27;2.90;;;2.35;;
27428;SDS011;14881;48.092;11.574;2024-02-26T14:07:56;3.03;;;2.10;;
27428;SDS011;14881;48.092;11.574;2024-02-26T14:10:24;2.83;;;2.17;;
27428;SDS011;14881;48.092;11.574;2024-02-26T14:12:52;6.28;;;2.70;;
27428;SDS011;14881;48.092;11.574;2024-02-26T14:15:20;2.53;;;2.33;;
27428;SDS011;14881;48.092;11.574;2024-02-26T14:17:50;2.63;;;2.40;;
27428;SDS011;14881;48.092;11.574;2024-02-26T14:20:23;3.15;;;2.50;;
27428;SDS011;14881;48.092;11.574;2024-02-26T14:22:53;2.95;;;2.50;;
27428;SDS011;14881;48.092;11.574;2024-02-26T14:25:21;5.00;;;2.88;;
27428;SDS011;14881;48.092;11.574;2024-02-26T14:27:50;3.72;;;2.90;;
27428;SDS011;14881;48.092;11.574;2024-02-26T14:30:18;6.43;;;2.78;;
27428;SDS011;14881;48.092;11.574;2024-02-26T14:32:46;4.70;;;2.90;;
27428;SDS011;14881;48.092;11.574;2024-02-26T14:35:14;4.60;;;2.72;;
27428;SDS011;14881;48.092;11.574;2024-02-26T14:37:43;5.13;;;2.97;;
27428;SDS011;14881;48.092;11.574;2024-02-26T14:40:15;4.50;;;3.00;;
27428;SDS011;14881;48.092;11.574;2024-02-26T14:42:43;6.70;;;3.15;;
27428;SDS011;14881;48.092;11.574;2024-02-26T14:45:12;5.78;;;3.63;;
27428;SDS011;14881;48.092;11.574;2024-02-26T14:47:40;5.90;;;3.35;;
27428;SDS011;14881;48.092;11.574;2024-02-26T14:50:08;5.78;;;3.75;;